sensor_id;sensor_type;location;lat;lon;timestamp;P1;durP1;ratioP1;P2;durP2;ratioP2
27495;SDS011;14929;51.336;9.416;2023-04-15T00:02:16;2.63;;;2.42;;
27495;SDS011;14929;51.336;9.416;2023-04-15T00:04:44;4.10;;;2.92;;
27495;SDS011;14929;51.336;9.416;2023-04-15T00:07:12;2.88;;;2.67;;
27495;SDS011;14929;51.336;9.416;2023-04-15T00:09:40;4.28;;;3.38;;
27495;SDS011;14929;51.336;9.416;2023-04-15T00:12:10;3.60;;;3.30;;
27495;SDS011;14929;51.336;9.416;2023-04-15T00:14:37;3.53;;;3.22;;
27495;SDS011;14929;51.336;9.416;2023-04-15T00:17:05;4.85;;;3.20;;
27495;SDS011;14929;51.336;9.416;2023-04-15T00:19:32;3.33;;;3.03;;
27495;SDS011;14929;51.336;9.416;2023-04-15T00:22:00;4.35;;;3.95;;
27495;SDS011;14929;51.336;9.416;2023-04-15T00:24:33;3.22;;;3.03;;
27495;SDS011;14929;51.336;9.416;2023-04-15T00:27:00;3.28;;;2.97;;
27495;SDS011;14929;51.336;9.416;2023-04-15T00:29:30;3.25;;;2.97;;
27495;SDS011;14929;51.336;9.416;2023-04-15T00:31:58;3.75;;;3.45;;
27495;SDS011;14929;51.336;9.416;2023-04-15T00:34:26;4.35;;;3.25;;
27495;SDS011;14929;51.336;9.416;2023-04-15T00:36:54;3.63;;;3.30;;
27495;SDS011;14929;51.336;9.416;2023-04-15T00:39:21;3.72;;;3.42;;
27495;SDS011;14929;51.336;9.416;2023-04-15T00:41:49;3.83;;;3.20;;
27495;SDS011;14929;51.336;9.416;2023-04-15T00:44:16;4.18;;;3.50;;
27495;SDS011;14929;51.336;9.416;2023-04-15T00:46:45;4.07;;;3.67;;
27495;SDS011;14929;51.336;9.416;2023-04-15T00:49:14;3.90;;;3.60;;
27495;SDS011;14929;51.336;9.416;2023-04-15T00:51:42;3.47;;;3.08;;
27495;SDS011;14929;51.336;9.416;2023-04-15T00:54:10;5.90;;;3.97;;
27495;SDS011;14929;51.336;9.416;2023-04-15T00:56:37;3.75;;;3.45;;
27495;SDS011;14929;51.336;9.416;2023-04-15T00:59:06;3.63;;;3.10;;
27495;SDS011;14929;51.336;9.416;2023-04-15T01:01:34;3.78;;;3.42;;
27495;SDS011;14929;51.336;9.416;2023-04-15T01:04:04;3.90;;;3.60;;
27495;SDS011;14929;51.336;9.416;2023-04-15T01:06:33;3.58;;;3.28;;
27495;SDS011;14929;51.336;9.416;2023-04-15T01:09:01;3.20;;;2.90;;
27495;SDS011;14929;51.336;9.416;2023-04-15T01:11:29;3.92;;;3.63;;
27495;SDS011;14929;51.336;9.416;2023-04-15T01:13:57;3.42;;;3.15;;
27495;SDS011;14929;51.336;9.416;2023-04-15T01:16:25;3.15;;;2.95;;
27495;SDS011;14929;51.336;9.416;2023-04-15T01:18:52;3.47;;;3.17;;
27495;SDS011;14929;51.336;9.416;2023-04-15T01:21:21;3.05;;;2.80;;
27495;SDS011;14929;51.336;9.416;2023-04-15T01:23:49;3.92;;;3.53;;
27495;SDS011;14929;51.336;9.416;2023-04-15T01:26:18;3.97;;;3.58;;
27495;SDS011;14929;51.336;9.416;2023-04-15T01:28:46;3.20;;;3.00;;
27495;SDS011;14929;51.336;9.416;2023-04-15T01:31:14;4.28;;;3.47;;
27495;SDS011;14929;51.336;9.416;2023-04-15T01:33:42;3.70;;;3.40;;
27495;SDS011;14929;51.336;9.416;2023-04-15T01:36:11;3.15;;;2.88;;
27495;SDS011;14929;51.336;9.416;2023-04-15T01:38:39;3.63;;;3.33;;
27495;SDS011;14929;51.336;9.416;2023-04-15T01:41:06;5.18;;;4.68;;
27495;SDS011;14929;51.336;9.416;2023-04-15T01:43:35;4.00;;;3.65;;
27495;SDS011;14929;51.336;9.416;2023-04-15T01:46:03;3.95;;;3.55;;
27495;SDS011;14929;51.336;9.416;2023-04-15T01:48:31;4.07;;;3.72;;
27495;SDS011;14929;51.336;9.416;2023-04-15T01:50:58;4.10;;;3.55;;
27495;SDS011;14929;51.336;9.416;2023-04-15T01:53:26;4.63;;;4.30;;
27495;SDS011;14929;51.336;9.416;2023-04-15T01:55:54;4.38;;;3.92;;
27495;SDS011;14929;51.336;9.416;2023-04-15T01:58:21;3.92;;;3.63;;
27495;SDS011;14929;51.336;9.416;2023-04-15T02:00:50;4.22;;;3.92;;
27495;SDS011;14929;51.336;9.416;2023-04-15T02:03:17;3.88;;;3.58;;
27495;SDS011;14929;51.336;9.416;2023-04-15T02:05:45;3.17;;;2.88;;
27495;SDS011;14929;51.336;9.416;2023-04-15T02:08:13;4.13;;;3.50;;
27495;SDS011;14929;51.336;9.416;2023-04-15T02:10:40;3.72;;;3.30;;
27495;SDS011;14929;51.336;9.416;2023-04-15T02:13:08;3.58;;;3.25;;
27495;SDS011;14929;51.336;9.416;2023-04-15T02:15:36;4.20;;;3.85;;
27495;SDS011;14929;51.336;9.416;2023-04-15T02:18:04;4.20;;;3.80;;
27495;SDS011;14929;51.336;9.416;2023-04-15T02:20:32;3.85;;;3.55;;
27495;SDS011;14929;51.336;9.416;2023-04-15T02:23:00;4.95;;;3.75;;
27495;SDS011;14929;51.336;9.416;2023-04-15T02:25:31;4.28;;;3.97;;
27495;SDS011;14929;51.336;9.416;2023-04-15T02:27:58;4.43;;;4.03;;
27495;SDS011;14929;51.336;9.416;2023-04-15T02:30:26;4.07;;;3.78;;
27495;SDS011;14929;51.336;9.416;2023-04-15T02:32:53;4.50;;;3.80;;
27495;SDS011;14929;51.336;9.416;2023-04-15T02:35:22;4.80;;;4.05;;
27495;SDS011;14929;51.336;9.416;2023-04-15T02:37:50;5.38;;;4.60;;
27495;SDS011;14929;51.336;9.416;2023-04-15T02:40:18;4.78;;;4.38;;
27495;SDS011;14929;51.336;9.416;2023-04-15T02:42:45;3.70;;;3.40;;
27495;SDS011;14929;51.336;9.416;2023-04-15T02:45:13;4.95;;;4.50;;
27495;SDS011;14929;51.336;9.416;2023-04-15T02:47:40;6.05;;;4.97;;
27495;SDS011;14929;51.336;9.416;2023-04-15T02:50:10;4.35;;;3.80;;
27495;SDS011;14929;51.336;9.416;2023-04-15T02:52:40;4.63;;;4.22;;
27495;SDS011;14929;51.336;9.416;2023-04-15T02:55:09;5.25;;;4.75;;
27495;SDS011;14929;51.336;9.416;2023-04-15T02:57:36;4.47;;;4.03;;
27495;SDS011;14929;51.336;9.416;2023-04-15T03:00:05;4.55;;;4.15;;
27495;SDS011;14929;51.336;9.416;2023-04-15T03:02:35;4.65;;;4.25;;
27495;SDS011;14929;51.336;9.416;2023-04-15T03:05:05;4.65;;;4.25;;
27495;SDS011;14929;51.336;9.416;2023-04-15T03:07:36;5.93;;;5.32;;
27495;SDS011;14929;51.336;9.416;2023-04-15T03:10:07;5.45;;;4.95;;
27495;SDS011;14929;51.336;9.416;2023-04-15T03:12:35;5.13;;;4.28;;
27495;SDS011;14929;51.336;9.416;2023-04-15T03:15:03;5.15;;;4.68;;
27495;SDS011;14929;51.336;9.416;2023-04-15T03:17:32;5.00;;;4.47;;
27495;SDS011;14929;51.336;9.416;2023-04-15T03:20:00;4.63;;;4.22;;
27495;SDS011;14929;51.336;9.416;2023-04-15T03:22:29;4.07;;;3.78;;
27495;SDS011;14929;51.336;9.416;2023-04-15T03:24:56;4.60;;;4.20;;
27495;SDS011;14929;51.336;9.416;2023-04-15T03:27:25;4.65;;;4.22;;
27495;SDS011;14929;51.336;9.416;2023-04-15T03:29:53;5.68;;;5.10;;
27495;SDS011;14929;51.336;9.416;2023-04-15T03:32:20;4.63;;;4.22;;
27495;SDS011;14929;51.336;9.416;2023-04-15T03:34:48;5.68;;;4.72;;
27495;SDS011;14929;51.336;9.416;2023-04-15T03:37:15;4.72;;;4.32;;
27495;SDS011;14929;51.336;9.416;2023-04-15T03:39:43;4.63;;;4.22;;
27495;SDS011;14929;51.336;9.416;2023-04-15T03:42:10;5.90;;;4.63;;
27495;SDS011;14929;51.336;9.416;2023-04-15T03:44:39;4.53;;;4.22;;
27495;SDS011;14929;51.336;9.416;2023-04-15T03:47:07;4.20;;;3.90;;
27495;SDS011;14929;51.336;9.416;2023-04-15T03:49:35;5.38;;;4.88;;
27495;SDS011;14929;51.336;9.416;2023-04-15T03:52:02;6.00;;;4.82;;
27495;SDS011;14929;51.336;9.416;2023-04-15T03:54:30;5.80;;;5.28;;
27495;SDS011;14929;51.336;9.416;2023-04-15T03:56:57;5.75;;;5.15;;
27495;SDS011;14929;51.336;9.416;2023-04-15T03:59:25;5.20;;;4.78;;
27495;SDS011;14929;51.336;9.416;2023-04-15T04:01:54;5.28;;;4.70;;
27495;SDS011;14929;51.336;9.416;2023-04-15T04:04:21;5.28;;;4.85;;
27495;SDS011;14929;51.336;9.416;2023-04-15T04:06:49;5.43;;;4.93;;
27495;SDS011;14929;51.336;9.416;2023-04-15T04:09:16;5.88;;;5.10;;
27495;SDS011;14929;51.336;9.416;2023-04-15T04:11:44;5.10;;;4.68;;
27495;SDS011;14929;51.336;9.416;2023-04-15T04:14:11;6.80;;;6.10;;
27495;SDS011;14929;51.336;9.416;2023-04-15T04:16:39;5.72;;;5.22;;
27495;SDS011;14929;51.336;9.416;2023-04-15T04:19:08;5.80;;;5.30;;
27495;SDS011;14929;51.336;9.416;2023-04-15T04:21:35;6.25;;;5.47;;
27495;SDS011;14929;51.336;9.416;2023-04-15T04:24:03;5.20;;;4.38;;
27495;SDS011;14929;51.336;9.416;2023-04-15T04:26:31;5.82;;;5.22;;
27495;SDS011;14929;51.336;9.416;2023-04-15T04:28:58;5.30;;;4.90;;
27495;SDS011;14929;51.336;9.416;2023-04-15T04:31:26;6.22;;;5.28;;
27495;SDS011;14929;51.336;9.416;2023-04-15T04:33:54;5.50;;;5.00;;
27495;SDS011;14929;51.336;9.416;2023-04-15T04:36:23;6.15;;;5.55;;
27495;SDS011;14929;51.336;9.416;2023-04-15T04:38:50;6.20;;;5.60;;
27495;SDS011;14929;51.336;9.416;2023-04-15T04:41:18;7.57;;;6.78;;
27495;SDS011;14929;51.336;9.416;2023-04-15T04:43:45;6.28;;;5.70;;
27495;SDS011;14929;51.336;9.416;2023-04-15T04:46:13;8.30;;;6.28;;
27495;SDS011;14929;51.336;9.416;2023-04-15T04:48:40;6.28;;;5.68;;
27495;SDS011;14929;51.336;9.416;2023-04-15T04:51:08;7.18;;;6.47;;
27495;SDS011;14929;51.336;9.416;2023-04-15T04:53:36;6.75;;;6.00;;
27495;SDS011;14929;51.336;9.416;2023-04-15T04:56:04;7.25;;;6.55;;
27495;SDS011;14929;51.336;9.416;2023-04-15T04:58:32;9.02;;;7.40;;
27495;SDS011;14929;51.336;9.416;2023-04-15T05:01:00;8.27;;;7.32;;
27495;SDS011;14929;51.336;9.416;2023-04-15T05:03:28;7.47;;;6.82;;
27495;SDS011;14929;51.336;9.416;2023-04-15T05:05:55;7.40;;;6.70;;
27495;SDS011;14929;51.336;9.416;2023-04-15T05:08:23;7.00;;;6.38;;
27495;SDS011;14929;51.336;9.416;2023-04-15T05:10:52;7.22;;;6.30;;
27495;SDS011;14929;51.336;9.416;2023-04-15T05:13:19;8.25;;;7.45;;
27495;SDS011;14929;51.336;9.416;2023-04-15T05:15:47;7.40;;;6.68;;
27495;SDS011;14929;51.336;9.416;2023-04-15T05:18:14;8.02;;;7.32;;
27495;SDS011;14929;51.336;9.416;2023-04-15T05:20:42;8.32;;;7.07;;
27495;SDS011;14929;51.336;9.416;2023-04-15T05:23:09;6.78;;;6.15;;
27495;SDS011;14929;51.336;9.416;2023-04-15T05:25:37;7.40;;;6.70;;
27495;SDS011;14929;51.336;9.416;2023-04-15T05:28:06;7.68;;;6.95;;
27495;SDS011;14929;51.336;9.416;2023-04-15T05:30:33;6.75;;;6.05;;
27495;SDS011;14929;51.336;9.416;2023-04-15T05:33:01;7.40;;;6.63;;
27495;SDS011;14929;51.336;9.416;2023-04-15T05:35:28;7.72;;;6.90;;
27495;SDS011;14929;51.336;9.416;2023-04-15T05:37:56;7.60;;;6.90;;
27495;SDS011;14929;51.336;9.416;2023-04-15T05:40:23;9.73;;;8.75;;
27495;SDS011;14929;51.336;9.416;2023-04-15T05:42:51;7.43;;;6.75;;
27495;SDS011;14929;51.336;9.416;2023-04-15T05:45:20;9.07;;;7.53;;
27495;SDS011;14929;51.336;9.416;2023-04-15T05:47:47;7.15;;;6.47;;
27495;SDS011;14929;51.336;9.416;2023-04-15T05:50:18;8.63;;;7.72;;
27495;SDS011;14929;51.336;9.416;2023-04-15T05:52:45;6.75;;;6.15;;
27495;SDS011;14929;51.336;9.416;2023-04-15T05:55:13;7.60;;;6.90;;
27495;SDS011;14929;51.336;9.416;2023-04-15T05:57:40;7.07;;;6.38;;
27495;SDS011;14929;51.336;9.416;2023-04-15T06:00:08;7.32;;;6.50;;
27495;SDS011;14929;51.336;9.416;2023-04-15T06:02:38;6.38;;;5.82;;
27495;SDS011;14929;51.336;9.416;2023-04-15T06:05:06;7.80;;;6.72;;
27495;SDS011;14929;51.336;9.416;2023-04-15T06:07:35;6.90;;;6.13;;
27495;SDS011;14929;51.336;9.416;2023-04-15T06:10:03;8.02;;;6.43;;
27495;SDS011;14929;51.336;9.416;2023-04-15T06:12:33;6.82;;;6.13;;
27495;SDS011;14929;51.336;9.416;2023-04-15T06:15:00;7.03;;;6.43;;
27495;SDS011;14929;51.336;9.416;2023-04-15T06:17:28;7.60;;;6.60;;
27495;SDS011;14929;51.336;9.416;2023-04-15T06:19:57;7.18;;;6.47;;
27495;SDS011;14929;51.336;9.416;2023-04-15T06:22:24;8.27;;;6.60;;
27495;SDS011;14929;51.336;9.416;2023-04-15T06:24:52;6.80;;;6.10;;
27495;SDS011;14929;51.336;9.416;2023-04-15T06:27:20;6.70;;;6.10;;
27495;SDS011;14929;51.336;9.416;2023-04-15T06:29:48;8.57;;;7.68;;
27495;SDS011;14929;51.336;9.416;2023-04-15T06:32:15;7.38;;;6.55;;
27495;SDS011;14929;51.336;9.416;2023-04-15T06:34:43;8.00;;;6.75;;
27495;SDS011;14929;51.336;9.416;2023-04-15T06:37:11;7.95;;;7.15;;
27495;SDS011;14929;51.336;9.416;2023-04-15T06:39:40;8.07;;;7.15;;
27495;SDS011;14929;51.336;9.416;2023-04-15T06:42:08;7.63;;;6.75;;
27495;SDS011;14929;51.336;9.416;2023-04-15T06:44:36;8.23;;;6.75;;
27495;SDS011;14929;51.336;9.416;2023-04-15T06:47:04;8.90;;;7.97;;
27495;SDS011;14929;51.336;9.416;2023-04-15T06:49:31;7.57;;;6.88;;
27495;SDS011;14929;51.336;9.416;2023-04-15T06:51:59;7.70;;;6.90;;
27495;SDS011;14929;51.336;9.416;2023-04-15T06:54:28;8.35;;;7.55;;
27495;SDS011;14929;51.336;9.416;2023-04-15T06:56:55;8.95;;;8.05;;
27495;SDS011;14929;51.336;9.416;2023-04-15T06:59:23;8.43;;;7.63;;
27495;SDS011;14929;51.336;9.416;2023-04-15T07:01:51;7.53;;;6.72;;
27495;SDS011;14929;51.336;9.416;2023-04-15T07:04:18;8.35;;;7.57;;
27495;SDS011;14929;51.336;9.416;2023-04-15T07:06:46;7.43;;;6.60;;
27495;SDS011;14929;51.336;9.416;2023-04-15T07:09:14;8.75;;;7.57;;
27495;SDS011;14929;51.336;9.416;2023-04-15T07:11:42;8.55;;;7.65;;
27495;SDS011;14929;51.336;9.416;2023-04-15T07:14:10;8.80;;;7.95;;
27495;SDS011;14929;51.336;9.416;2023-04-15T07:16:37;8.38;;;7.47;;
27495;SDS011;14929;51.336;9.416;2023-04-15T07:19:05;9.07;;;8.18;;
27495;SDS011;14929;51.336;9.416;2023-04-15T07:21:33;8.95;;;7.93;;
27495;SDS011;14929;51.336;9.416;2023-04-15T07:24:00;9.70;;;8.73;;
27495;SDS011;14929;51.336;9.416;2023-04-15T07:26:28;8.88;;;7.82;;
27495;SDS011;14929;51.336;9.416;2023-04-15T07:28:57;9.38;;;8.23;;
27495;SDS011;14929;51.336;9.416;2023-04-15T07:31:24;8.43;;;7.63;;
27495;SDS011;14929;51.336;9.416;2023-04-15T07:33:52;9.43;;;8.40;;
27495;SDS011;14929;51.336;9.416;2023-04-15T07:36:19;9.30;;;8.25;;
27495;SDS011;14929;51.336;9.416;2023-04-15T07:38:47;9.90;;;7.78;;
27495;SDS011;14929;51.336;9.416;2023-04-15T07:41:14;8.38;;;7.53;;
27495;SDS011;14929;51.336;9.416;2023-04-15T07:43:42;8.80;;;7.90;;
27495;SDS011;14929;51.336;9.416;2023-04-15T07:46:11;8.18;;;7.03;;
27495;SDS011;14929;51.336;9.416;2023-04-15T07:48:38;8.95;;;7.70;;
27495;SDS011;14929;51.336;9.416;2023-04-15T07:51:06;9.20;;;8.23;;
27495;SDS011;14929;51.336;9.416;2023-04-15T07:53:34;8.73;;;7.90;;
27495;SDS011;14929;51.336;9.416;2023-04-15T07:56:02;8.63;;;7.45;;
27495;SDS011;14929;51.336;9.416;2023-04-15T07:58:30;10.05;;;7.55;;
27495;SDS011;14929;51.336;9.416;2023-04-15T08:00:58;8.00;;;7.07;;
27495;SDS011;14929;51.336;9.416;2023-04-15T08:03:27;7.75;;;6.95;;
27495;SDS011;14929;51.336;9.416;2023-04-15T08:05:54;9.63;;;7.30;;
27495;SDS011;14929;51.336;9.416;2023-04-15T08:08:22;9.35;;;7.80;;
27495;SDS011;14929;51.336;9.416;2023-04-15T08:10:50;8.75;;;7.82;;
27495;SDS011;14929;51.336;9.416;2023-04-15T08:13:17;8.05;;;7.20;;
27495;SDS011;14929;51.336;9.416;2023-04-15T08:15:52;6.63;;;5.95;;
27495;SDS011;14929;51.336;9.416;2023-04-15T08:18:46;7.53;;;6.53;;
27495;SDS011;14929;51.336;9.416;2023-04-15T08:21:13;7.03;;;6.13;;
27495;SDS011;14929;51.336;9.416;2023-04-15T08:23:42;6.68;;;5.82;;
27495;SDS011;14929;51.336;9.416;2023-04-15T08:26:09;6.57;;;5.95;;
27495;SDS011;14929;51.336;9.416;2023-04-15T08:28:37;6.72;;;6.03;;
27495;SDS011;14929;51.336;9.416;2023-04-15T08:31:06;7.13;;;6.43;;
27495;SDS011;14929;51.336;9.416;2023-04-15T08:33:34;6.93;;;5.75;;
27495;SDS011;14929;51.336;9.416;2023-04-15T08:36:03;7.35;;;6.65;;
27495;SDS011;14929;51.336;9.416;2023-04-15T08:38:31;5.63;;;4.95;;
27495;SDS011;14929;51.336;9.416;2023-04-15T08:40:59;6.57;;;5.43;;
27495;SDS011;14929;51.336;9.416;2023-04-15T08:43:32;5.45;;;4.95;;
27495;SDS011;14929;51.336;9.416;2023-04-15T08:46:00;5.60;;;5.10;;
27495;SDS011;14929;51.336;9.416;2023-04-15T08:48:29;5.60;;;5.00;;
27495;SDS011;14929;51.336;9.416;2023-04-15T08:50:59;6.10;;;5.55;;
27495;SDS011;14929;51.336;9.416;2023-04-15T08:53:29;5.95;;;5.30;;
27495;SDS011;14929;51.336;9.416;2023-04-15T08:55:56;7.25;;;6.25;;
27495;SDS011;14929;51.336;9.416;2023-04-15T08:58:27;5.15;;;4.63;;
27495;SDS011;14929;51.336;9.416;2023-04-15T09:00:55;6.18;;;5.57;;
27495;SDS011;14929;51.336;9.416;2023-04-15T09:03:23;6.68;;;6.03;;
27495;SDS011;14929;51.336;9.416;2023-04-15T09:05:50;7.90;;;6.13;;
27495;SDS011;14929;51.336;9.416;2023-04-15T09:08:18;6.13;;;5.60;;
27495;SDS011;14929;51.336;9.416;2023-04-15T09:10:47;4.93;;;4.30;;
27495;SDS011;14929;51.336;9.416;2023-04-15T09:13:15;5.85;;;5.25;;
27495;SDS011;14929;51.336;9.416;2023-04-15T09:15:43;5.60;;;5.10;;
27495;SDS011;14929;51.336;9.416;2023-04-15T09:18:11;5.22;;;4.43;;
27495;SDS011;14929;51.336;9.416;2023-04-15T09:20:38;5.75;;;5.15;;
27495;SDS011;14929;51.336;9.416;2023-04-15T09:23:10;5.35;;;4.85;;
27495;SDS011;14929;51.336;9.416;2023-04-15T09:25:40;5.60;;;5.10;;
27495;SDS011;14929;51.336;9.416;2023-04-15T09:28:09;5.43;;;4.85;;
27495;SDS011;14929;51.336;9.416;2023-04-15T09:30:37;5.63;;;4.97;;
27495;SDS011;14929;51.336;9.416;2023-04-15T09:33:04;4.65;;;4.15;;
27495;SDS011;14929;51.336;9.416;2023-04-15T09:35:35;5.15;;;4.65;;
27495;SDS011;14929;51.336;9.416;2023-04-15T09:38:02;7.10;;;4.95;;
27495;SDS011;14929;51.336;9.416;2023-04-15T09:40:31;4.68;;;4.22;;
27495;SDS011;14929;51.336;9.416;2023-04-15T09:43:00;6.00;;;4.82;;
27495;SDS011;14929;51.336;9.416;2023-04-15T09:45:30;5.20;;;4.70;;
27495;SDS011;14929;51.336;9.416;2023-04-15T09:48:05;4.82;;;4.43;;
27495;SDS011;14929;51.336;9.416;2023-04-15T09:50:43;4.63;;;4.07;;
27495;SDS011;14929;51.336;9.416;2023-04-15T09:53:11;4.40;;;4.00;;
27495;SDS011;14929;51.336;9.416;2023-04-15T09:55:44;3.88;;;3.58;;
27495;SDS011;14929;51.336;9.416;2023-04-15T09:58:18;3.72;;;3.42;;
27495;SDS011;14929;51.336;9.416;2023-04-15T10:00:49;4.55;;;3.95;;
27495;SDS011;14929;51.336;9.416;2023-04-15T10:03:18;3.35;;;3.00;;
27495;SDS011;14929;51.336;9.416;2023-04-15T10:05:47;3.28;;;2.97;;
27495;SDS011;14929;51.336;9.416;2023-04-15T10:08:17;2.63;;;2.42;;
27495;SDS011;14929;51.336;9.416;2023-04-15T10:10:46;2.83;;;2.63;;
27495;SDS011;14929;51.336;9.416;2023-04-15T10:13:16;3.53;;;2.80;;
27495;SDS011;14929;51.336;9.416;2023-04-15T10:15:47;2.78;;;2.58;;
27495;SDS011;14929;51.336;9.416;2023-04-15T10:18:33;4.95;;;2.72;;
27495;SDS011;14929;51.336;9.416;2023-04-15T10:21:03;2.40;;;2.20;;
27495;SDS011;14929;51.336;9.416;2023-04-15T10:23:31;2.70;;;2.50;;
27495;SDS011;14929;51.336;9.416;2023-04-15T10:26:00;3.05;;;2.85;;
27495;SDS011;14929;51.336;9.416;2023-04-15T10:28:28;2.92;;;2.72;;
27495;SDS011;14929;51.336;9.416;2023-04-15T10:30:57;2.45;;;2.25;;
27495;SDS011;14929;51.336;9.416;2023-04-15T10:33:25;3.42;;;2.97;;
27495;SDS011;14929;51.336;9.416;2023-04-15T10:35:53;2.15;;;2.05;;
27495;SDS011;14929;51.336;9.416;2023-04-15T10:38:31;2.83;;;2.63;;
27495;SDS011;14929;51.336;9.416;2023-04-15T10:41:13;2.85;;;2.63;;
27495;SDS011;14929;51.336;9.416;2023-04-15T10:43:50;2.63;;;2.42;;
27495;SDS011;14929;51.336;9.416;2023-04-15T10:46:23;3.00;;;2.72;;
27495;SDS011;14929;51.336;9.416;2023-04-15T10:49:05;3.38;;;2.72;;
27495;SDS011;14929;51.336;9.416;2023-04-15T10:51:36;3.13;;;2.88;;
27495;SDS011;14929;51.336;9.416;2023-04-15T10:54:07;3.25;;;2.95;;
27495;SDS011;14929;51.336;9.416;2023-04-15T10:56:40;2.85;;;2.65;;
27495;SDS011;14929;51.336;9.416;2023-04-15T10:59:08;3.00;;;2.75;;
27495;SDS011;14929;51.336;9.416;2023-04-15T11:01:50;2.42;;;2.22;;
27495;SDS011;14929;51.336;9.416;2023-04-15T11:07:32;2.47;;;2.28;;
27495;SDS011;14929;51.336;9.416;2023-04-15T11:13:21;2.03;;;1.92;;
27495;SDS011;14929;51.336;9.416;2023-04-15T11:16:00;2.58;;;2.38;;
27495;SDS011;14929;51.336;9.416;2023-04-15T11:18:33;2.38;;;2.10;;
27495;SDS011;14929;51.336;9.416;2023-04-15T11:21:01;2.35;;;2.15;;
27495;SDS011;14929;51.336;9.416;2023-04-15T11:23:35;1.65;;;1.55;;
27495;SDS011;14929;51.336;9.416;2023-04-15T11:26:05;1.80;;;1.70;;
27495;SDS011;14929;51.336;9.416;2023-04-15T11:28:38;2.25;;;2.08;;
27495;SDS011;14929;51.336;9.416;2023-04-15T11:31:08;1.70;;;1.60;;
27495;SDS011;14929;51.336;9.416;2023-04-15T11:33:43;1.70;;;1.60;;
27495;SDS011;14929;51.336;9.416;2023-04-15T11:36:12;1.70;;;1.60;;
27495;SDS011;14929;51.336;9.416;2023-04-15T11:38:43;1.60;;;1.50;;
27495;SDS011;14929;51.336;9.416;2023-04-15T11:41:12;1.60;;;1.50;;
27495;SDS011;14929;51.336;9.416;2023-04-15T11:43:39;1.55;;;1.45;;
27495;SDS011;14929;51.336;9.416;2023-04-15T11:46:08;2.00;;;1.85;;
27495;SDS011;14929;51.336;9.416;2023-04-15T11:48:36;1.45;;;1.35;;
27495;SDS011;14929;51.336;9.416;2023-04-15T11:51:10;1.60;;;1.50;;
27495;SDS011;14929;51.336;9.416;2023-04-15T11:53:38;1.45;;;1.35;;
27495;SDS011;14929;51.336;9.416;2023-04-15T11:56:08;3.30;;;2.30;;
27495;SDS011;14929;51.336;9.416;2023-04-15T11:58:37;2.17;;;1.90;;
27495;SDS011;14929;51.336;9.416;2023-04-15T12:01:06;1.75;;;1.65;;
27495;SDS011;14929;51.336;9.416;2023-04-15T12:03:37;1.52;;;1.42;;
27495;SDS011;14929;51.336;9.416;2023-04-15T12:06:13;1.80;;;1.70;;
27495;SDS011;14929;51.336;9.416;2023-04-15T12:08:49;2.45;;;2.28;;
27495;SDS011;14929;51.336;9.416;2023-04-15T12:11:30;2.05;;;1.85;;
27495;SDS011;14929;51.336;9.416;2023-04-15T12:14:07;1.58;;;1.48;;
27495;SDS011;14929;51.336;9.416;2023-04-15T12:16:39;2.33;;;1.90;;
27495;SDS011;14929;51.336;9.416;2023-04-15T12:19:09;2.50;;;2.30;;
27495;SDS011;14929;51.336;9.416;2023-04-15T12:21:42;2.10;;;2.00;;
27495;SDS011;14929;51.336;9.416;2023-04-15T12:24:12;2.25;;;2.10;;
27495;SDS011;14929;51.336;9.416;2023-04-15T12:26:43;2.60;;;2.40;;
27495;SDS011;14929;51.336;9.416;2023-04-15T12:29:13;2.67;;;2.45;;
27495;SDS011;14929;51.336;9.416;2023-04-15T12:31:48;2.38;;;2.17;;
27495;SDS011;14929;51.336;9.416;2023-04-15T12:34:17;2.72;;;2.53;;
27495;SDS011;14929;51.336;9.416;2023-04-15T12:36:53;3.00;;;2.70;;
27495;SDS011;14929;51.336;9.416;2023-04-15T12:39:21;2.10;;;2.00;;
27495;SDS011;14929;51.336;9.416;2023-04-15T12:41:49;2.53;;;2.33;;
27495;SDS011;14929;51.336;9.416;2023-04-15T12:44:16;2.80;;;2.60;;
27495;SDS011;14929;51.336;9.416;2023-04-15T12:46:45;2.60;;;2.40;;
27495;SDS011;14929;51.336;9.416;2023-04-15T12:49:12;4.07;;;3.53;;
27495;SDS011;14929;51.336;9.416;2023-04-15T12:51:40;3.22;;;2.92;;
27495;SDS011;14929;51.336;9.416;2023-04-15T12:54:09;2.60;;;2.40;;
27495;SDS011;14929;51.336;9.416;2023-04-15T12:56:36;3.58;;;3.28;;
27495;SDS011;14929;51.336;9.416;2023-04-15T12:59:04;2.85;;;2.60;;
27495;SDS011;14929;51.336;9.416;2023-04-15T13:01:31;2.95;;;2.75;;
27495;SDS011;14929;51.336;9.416;2023-04-15T13:04:00;3.53;;;3.22;;
27495;SDS011;14929;51.336;9.416;2023-04-15T13:06:27;3.13;;;2.60;;
27495;SDS011;14929;51.336;9.416;2023-04-15T13:08:57;2.88;;;2.67;;
27495;SDS011;14929;51.336;9.416;2023-04-15T13:11:27;2.65;;;2.45;;
27495;SDS011;14929;51.336;9.416;2023-04-15T13:13:55;2.92;;;2.72;;
27495;SDS011;14929;51.336;9.416;2023-04-15T13:16:22;2.88;;;2.67;;
27495;SDS011;14929;51.336;9.416;2023-04-15T13:18:50;2.88;;;2.67;;
27495;SDS011;14929;51.336;9.416;2023-04-15T13:21:17;2.45;;;2.25;;
27495;SDS011;14929;51.336;9.416;2023-04-15T13:23:45;2.78;;;2.58;;
27495;SDS011;14929;51.336;9.416;2023-04-15T13:26:13;2.92;;;2.70;;
27495;SDS011;14929;51.336;9.416;2023-04-15T13:28:42;2.72;;;2.55;;
27495;SDS011;14929;51.336;9.416;2023-04-15T13:31:10;6.40;;;5.80;;
27495;SDS011;14929;51.336;9.416;2023-04-15T13:33:37;3.28;;;3.03;;
27495;SDS011;14929;51.336;9.416;2023-04-15T13:36:05;3.00;;;2.78;;
27495;SDS011;14929;51.336;9.416;2023-04-15T13:38:32;2.70;;;2.50;;
27495;SDS011;14929;51.336;9.416;2023-04-15T13:41:00;3.10;;;2.80;;
27495;SDS011;14929;51.336;9.416;2023-04-15T13:43:28;2.72;;;2.53;;
27495;SDS011;14929;51.336;9.416;2023-04-15T13:45:57;3.05;;;2.75;;
27495;SDS011;14929;51.336;9.416;2023-04-15T13:48:24;2.47;;;2.28;;
27495;SDS011;14929;51.336;9.416;2023-04-15T13:50:52;2.80;;;2.60;;
27495;SDS011;14929;51.336;9.416;2023-04-15T13:53:19;3.28;;;3.08;;
27495;SDS011;14929;51.336;9.416;2023-04-15T13:55:47;3.28;;;3.08;;
27495;SDS011;14929;51.336;9.416;2023-04-15T13:58:14;2.80;;;2.60;;
27495;SDS011;14929;51.336;9.416;2023-04-15T14:00:45;3.00;;;2.80;;
27495;SDS011;14929;51.336;9.416;2023-04-15T14:03:14;3.42;;;3.13;;
27495;SDS011;14929;51.336;9.416;2023-04-15T14:05:41;3.42;;;3.13;;
27495;SDS011;14929;51.336;9.416;2023-04-15T14:08:09;4.13;;;3.72;;
27495;SDS011;14929;51.336;9.416;2023-04-15T14:10:36;4.05;;;3.75;;
27495;SDS011;14929;51.336;9.416;2023-04-15T14:13:05;4.72;;;4.32;;
27495;SDS011;14929;51.336;9.416;2023-04-15T14:15:33;4.35;;;3.95;;
27495;SDS011;14929;51.336;9.416;2023-04-15T14:18:00;4.03;;;3.50;;
27495;SDS011;14929;51.336;9.416;2023-04-15T14:20:29;4.18;;;3.78;;
27495;SDS011;14929;51.336;9.416;2023-04-15T14:22:57;3.65;;;3.35;;
27495;SDS011;14929;51.336;9.416;2023-04-15T14:25:25;4.00;;;3.70;;
27495;SDS011;14929;51.336;9.416;2023-04-15T14:27:52;4.88;;;4.40;;
27495;SDS011;14929;51.336;9.416;2023-04-15T14:30:20;5.57;;;4.38;;
27495;SDS011;14929;51.336;9.416;2023-04-15T14:32:47;4.07;;;3.70;;
27495;SDS011;14929;51.336;9.416;2023-04-15T14:35:15;4.85;;;4.35;;
27495;SDS011;14929;51.336;9.416;2023-04-15T14:37:44;4.70;;;4.32;;
27495;SDS011;14929;51.336;9.416;2023-04-15T14:40:11;4.05;;;3.75;;
27495;SDS011;14929;51.336;9.416;2023-04-15T14:42:39;5.15;;;4.75;;
27495;SDS011;14929;51.336;9.416;2023-04-15T14:45:07;5.00;;;4.60;;
27495;SDS011;14929;51.336;9.416;2023-04-15T14:47:35;4.97;;;4.45;;
27495;SDS011;14929;51.336;9.416;2023-04-15T14:50:03;4.85;;;4.45;;
27495;SDS011;14929;51.336;9.416;2023-04-15T14:52:32;4.57;;;4.18;;
27495;SDS011;14929;51.336;9.416;2023-04-15T14:55:04;6.32;;;5.68;;
27495;SDS011;14929;51.336;9.416;2023-04-15T14:57:34;5.13;;;4.53;;
27495;SDS011;14929;51.336;9.416;2023-04-15T15:00:02;5.63;;;5.13;;
27495;SDS011;14929;51.336;9.416;2023-04-15T15:02:31;5.72;;;5.20;;
27495;SDS011;14929;51.336;9.416;2023-04-15T15:05:00;4.63;;;4.22;;